createdAt,value
2018-04-06T00:01:35.522Z,4.10
2018-04-06T00:04:03.262Z,4.08
2018-04-06T00:06:30.725Z,4.05
2018-04-06T00:08:58.224Z,4.05
2018-04-06T00:11:25.867Z,4.02
2018-04-06T00:13:53.315Z,4.04
2018-04-06T00:16:20.803Z,4.05
2018-04-06T00:18:48.257Z,4.01
2018-04-06T00:21:15.830Z,4.01
2018-04-06T00:23:43.302Z,4.00
2018-04-06T00:26:10.866Z,3.97
2018-04-06T00:28:38.348Z,3.91
2018-04-06T00:31:05.815Z,3.89
2018-04-06T00:33:33.333Z,3.84
2018-04-06T00:36:00.866Z,3.81
2018-04-06T00:38:28.355Z,3.80
2018-04-06T00:40:55.840Z,3.78
2018-04-06T00:43:23.342Z,3.77
2018-04-06T00:45:50.815Z,3.77
2018-04-06T00:48:18.280Z,3.74
2018-04-06T00:50:45.831Z,3.72
2018-04-06T00:53:25.279Z,3.69
2018-04-06T00:55:52.816Z,3.68
2018-04-06T00:58:20.400Z,3.69
2018-04-06T01:00:47.855Z,3.65
2018-04-06T01:03:15.343Z,3.60
2018-04-06T01:05:42.800Z,3.62
2018-04-06T01:08:10.360Z,3.63
2018-04-06T01:10:37.864Z,3.60
2018-04-06T01:13:05.317Z,3.59
2018-04-06T01:15:32.890Z,3.56
2018-04-06T01:18:00.362Z,3.51
2018-04-06T01:20:27.822Z,3.51
2018-04-06T01:22:55.420Z,3.50
2018-04-06T01:25:22.922Z,3.47
2018-04-06T01:27:50.396Z,3.49
2018-04-06T01:30:17.933Z,3.41
2018-04-06T01:32:45.906Z,3.39
2018-04-06T01:35:13.385Z,3.35
2018-04-06T01:37:40.842Z,3.35
2018-04-06T01:40:08.307Z,3.32
2018-04-06T01:42:35.766Z,3.33
2018-04-06T01:45:03.256Z,3.28
2018-04-06T01:47:30.710Z,3.27
2018-04-06T01:49:58.163Z,3.28
2018-04-06T01:52:25.623Z,3.26
2018-04-06T01:54:53.083Z,3.24
2018-04-06T01:57:20.577Z,3.23
2018-04-06T01:59:48.038Z,3.22
2018-04-06T02:02:15.490Z,3.19
2018-04-06T02:04:42.970Z,3.18
2018-04-06T02:07:10.427Z,3.12
2018-04-06T02:09:37.905Z,3.09
2018-04-06T02:12:05.416Z,3.05
2018-04-06T02:14:32.870Z,3.03
2018-04-06T02:17:00.345Z,3.02
2018-04-06T02:19:27.805Z,3.02
2018-04-06T02:21:55.259Z,3.04
2018-04-06T02:24:22.753Z,3.02
2018-04-06T02:26:50.210Z,3.04
2018-04-06T02:29:17.718Z,2.99
2018-04-06T02:31:45.167Z,2.99
2018-04-06T02:34:12.627Z,3.01
2018-04-06T02:36:40.199Z,2.98
2018-04-06T02:39:07.651Z,3.00
2018-04-06T02:41:35.109Z,2.95
2018-04-06T02:44:02.592Z,2.98
2018-04-06T02:46:30.058Z,2.94
2018-04-06T02:48:57.539Z,2.93
2018-04-06T02:51:25.007Z,2.94
2018-04-06T02:53:52.478Z,2.90
2018-04-06T02:56:19.940Z,2.90
2018-04-06T02:58:47.445Z,2.86
2018-04-06T03:01:14.899Z,2.84
2018-04-06T03:03:42.368Z,2.83
2018-04-06T03:06:09.898Z,2.79
2018-04-06T03:08:37.355Z,2.78
2018-04-06T03:11:05.595Z,2.79
2018-04-06T03:13:33.058Z,2.74
2018-04-06T03:16:00.530Z,2.75
2018-04-06T03:18:28.092Z,2.73
2018-04-06T03:20:55.595Z,2.68
2018-04-06T03:23:23.066Z,2.62
2018-04-06T03:25:50.522Z,2.61
2018-04-06T03:28:17.978Z,2.61
2018-04-06T03:30:45.533Z,2.64
2018-04-06T03:33:13.042Z,2.61
2018-04-06T03:35:40.491Z,2.59
2018-04-06T03:38:07.958Z,2.57
2018-04-06T03:40:35.429Z,2.56
2018-04-06T03:43:02.967Z,2.58
2018-04-06T03:45:30.426Z,2.58
2018-04-06T03:47:57.985Z,2.61
2018-04-06T03:50:25.442Z,2.62
2018-04-06T03:52:52.978Z,2.57
2018-04-06T03:55:20.437Z,2.55
2018-04-06T03:57:47.923Z,2.56
2018-04-06T04:00:15.382Z,2.56
2018-04-06T04:02:42.855Z,2.57
2018-04-06T04:05:10.325Z,2.56
2018-04-06T04:07:37.844Z,2.54
2018-04-06T04:10:05.319Z,2.53
2018-04-06T04:12:32.785Z,2.53
2018-04-06T04:15:00.325Z,2.53
2018-04-06T04:17:27.806Z,2.55
2018-04-06T04:19:55.339Z,2.53
2018-04-06T04:22:22.798Z,2.53
2018-04-06T04:24:50.298Z,2.54
2018-04-06T04:27:17.771Z,2.52
2018-04-06T04:29:45.225Z,2.53
2018-04-06T04:32:12.728Z,2.53
2018-04-06T04:34:40.190Z,2.57
2018-04-06T04:37:07.642Z,2.57
2018-04-06T04:39:35.147Z,2.54
2018-04-06T04:42:02.605Z,2.50
2018-04-06T04:44:30.156Z,2.55
2018-04-06T04:46:57.666Z,2.59
2018-04-06T04:49:25.147Z,2.61
2018-04-06T04:51:52.732Z,2.61
2018-04-06T04:54:20.228Z,2.65
2018-04-06T04:56:47.817Z,2.72
2018-04-06T04:59:15.298Z,2.70
2018-04-06T05:01:43.065Z,2.73
2018-04-06T05:04:10.596Z,2.83
2018-04-06T05:06:38.058Z,2.88
2018-04-06T05:09:06.446Z,2.89
2018-04-06T05:11:33.930Z,2.93
2018-04-06T05:14:01.391Z,2.96
2018-04-06T05:16:28.855Z,3.04
2018-04-06T05:18:56.354Z,3.05
2018-04-06T05:21:23.843Z,3.09
2018-04-06T05:23:51.345Z,3.12
2018-04-06T05:26:18.828Z,3.16
2018-04-06T05:28:46.298Z,3.19
2018-04-06T05:31:13.758Z,3.24
2018-04-06T05:33:41.252Z,3.31
2018-04-06T05:36:08.711Z,3.33
2018-04-06T05:38:36.254Z,3.39
2018-04-06T05:41:03.682Z,3.46
2018-04-06T05:43:31.158Z,3.51
2018-04-06T05:45:58.686Z,3.59
2018-04-06T05:48:26.146Z,3.66
2018-04-06T05:50:53.603Z,3.64
2018-04-06T05:53:21.063Z,3.61
2018-04-06T05:55:48.542Z,3.63
2018-04-06T05:58:16.058Z,3.71
2018-04-06T06:00:43.509Z,3.75
2018-04-06T06:03:10.993Z,3.83
2018-04-06T06:05:38.558Z,3.86
2018-04-06T06:08:06.114Z,3.90
2018-04-06T06:10:33.589Z,3.99
2018-04-06T06:13:01.072Z,4.03
2018-04-06T06:15:28.544Z,4.09
2018-04-06T06:17:56.178Z,4.16
2018-04-06T06:20:23.630Z,4.18
2018-04-06T06:22:51.085Z,4.23
2018-04-06T06:25:18.549Z,4.34
2018-04-06T06:27:46.042Z,4.46
2018-04-06T06:30:13.692Z,4.49
2018-04-06T06:32:41.197Z,4.56
2018-04-06T06:35:08.681Z,4.66
2018-04-06T06:37:36.170Z,4.76
2018-04-06T06:40:03.649Z,4.81
2018-04-06T06:42:31.105Z,4.84
2018-04-06T06:44:58.697Z,4.90
2018-04-06T06:47:26.155Z,4.83
2018-04-06T06:49:53.612Z,4.68
2018-04-06T06:52:21.168Z,4.80
2018-04-06T06:54:48.625Z,4.89
2018-04-06T06:57:16.096Z,5.02
2018-04-06T06:59:43.589Z,5.05
2018-04-06T07:02:11.087Z,5.14
2018-04-06T07:04:38.561Z,5.35
2018-04-06T07:07:06.019Z,5.51
2018-04-06T07:09:33.543Z,5.49
2018-04-06T07:12:00.996Z,5.30
2018-04-06T07:14:28.612Z,5.47
2018-04-06T07:16:56.087Z,5.47
2018-04-06T07:19:23.546Z,5.55
2018-04-06T07:21:51.796Z,5.68
2018-04-06T07:24:19.272Z,5.92
2018-04-06T07:26:46.740Z,5.98
2018-04-06T07:29:15.062Z,5.98
2018-04-06T07:31:42.736Z,5.97
2018-04-06T07:34:10.198Z,6.02
2018-04-06T07:36:37.694Z,6.05
2018-04-06T07:39:06.109Z,5.99
2018-04-06T07:41:33.559Z,6.13
2018-04-06T07:44:01.031Z,6.34
2018-04-06T07:46:28.546Z,6.57
2018-04-06T07:48:56.044Z,6.61
2018-04-06T07:51:23.501Z,6.64
2018-04-06T07:53:50.964Z,6.79
2018-04-06T07:56:18.547Z,6.81
2018-04-06T07:58:46.007Z,6.71
2018-04-06T08:01:13.473Z,6.76
2018-04-06T08:03:40.943Z,6.87
2018-04-06T08:06:08.462Z,7.06
2018-04-06T08:08:35.932Z,7.17
2018-04-06T08:11:03.406Z,7.23
2018-04-06T08:13:30.926Z,7.42
2018-04-06T08:15:58.360Z,7.57
2018-04-06T08:18:25.817Z,7.54
2018-04-06T08:20:53.321Z,7.46
2018-04-06T08:23:20.767Z,7.54
2018-04-06T08:25:48.234Z,7.51
2018-04-06T08:28:15.826Z,7.43
2018-04-06T08:30:43.293Z,7.68
2018-04-06T08:33:10.751Z,7.86
2018-04-06T08:35:38.230Z,7.94
2018-04-06T08:38:05.686Z,8.03
2018-04-06T08:40:33.154Z,7.95
2018-04-06T08:43:00.607Z,8.08
2018-04-06T08:45:28.068Z,8.12
2018-04-06T08:47:55.561Z,8.28
2018-04-06T08:50:23.031Z,8.25
2018-04-06T08:52:50.567Z,8.10
2018-04-06T08:55:18.050Z,8.26
2018-04-06T08:57:45.508Z,8.58
2018-04-06T09:00:12.984Z,8.95
2018-04-06T09:02:40.477Z,9.13
2018-04-06T09:05:07.942Z,9.02
2018-04-06T09:07:35.402Z,8.86
2018-04-06T09:10:02.867Z,8.85
2018-04-06T09:12:30.322Z,8.87
2018-04-06T09:14:57.883Z,9.00
2018-04-06T09:17:25.340Z,9.03
2018-04-06T09:19:52.796Z,8.95
2018-04-06T09:22:20.293Z,9.06
2018-04-06T09:24:47.758Z,9.13
2018-04-06T09:27:15.211Z,9.12
2018-04-06T09:29:42.683Z,9.34
2018-04-06T09:32:10.169Z,9.45
2018-04-06T09:34:37.654Z,9.55
2018-04-06T09:37:05.170Z,9.76
2018-04-06T09:39:32.636Z,10.01
2018-04-06T09:42:00.118Z,10.15
2018-04-06T09:44:27.608Z,10.19
2018-04-06T09:46:55.134Z,10.24
2018-04-06T09:49:22.608Z,9.98
2018-04-06T09:51:50.074Z,9.89
2018-04-06T09:54:17.539Z,10.00
2018-04-06T09:56:45.056Z,10.13
2018-04-06T09:59:12.572Z,10.39
2018-04-06T10:01:40.022Z,10.63
2018-04-06T10:04:07.507Z,10.68
2018-04-06T10:06:34.971Z,10.50
2018-04-06T10:09:02.437Z,10.50
2018-04-06T10:11:29.906Z,10.39
2018-04-06T10:13:57.398Z,10.39
2018-04-06T10:16:24.879Z,10.51
2018-04-06T10:18:52.335Z,10.39
2018-04-06T10:21:19.824Z,10.32
2018-04-06T10:23:47.289Z,10.45
2018-04-06T10:26:14.742Z,10.84
2018-04-06T10:28:42.245Z,11.06
2018-04-06T10:31:09.706Z,10.71
2018-04-06T10:33:37.167Z,10.31
2018-04-06T10:36:04.675Z,10.39
2018-04-06T10:38:32.136Z,10.49
2018-04-06T10:40:59.605Z,10.66
2018-04-06T10:43:27.087Z,11.06
2018-04-06T10:45:54.567Z,11.38
2018-04-06T10:48:22.051Z,11.52
2018-04-06T10:50:49.515Z,11.58
2018-04-06T10:53:16.982Z,11.68
2018-04-06T10:55:44.457Z,11.57
2018-04-06T10:58:11.918Z,11.65
2018-04-06T11:00:39.390Z,11.67
2018-04-06T11:03:06.914Z,11.85
2018-04-06T11:05:34.370Z,12.02
2018-04-06T11:08:01.880Z,11.89
2018-04-06T11:10:29.355Z,11.87
2018-04-06T11:12:56.810Z,11.78
2018-04-06T11:15:24.266Z,11.79
2018-04-06T11:17:51.749Z,11.91
2018-04-06T11:20:19.206Z,11.81
2018-04-06T11:22:46.678Z,11.88
2018-04-06T11:25:14.221Z,11.76
2018-04-06T11:27:41.677Z,11.90
2018-04-06T11:30:09.146Z,12.07
2018-04-06T11:32:36.667Z,11.80
2018-04-06T11:35:04.131Z,11.51
2018-04-06T11:37:31.594Z,11.68
2018-04-06T11:39:59.068Z,11.76
2018-04-06T11:42:26.540Z,11.80
2018-04-06T11:44:53.996Z,11.77
2018-04-06T11:47:21.510Z,11.78
2018-04-06T11:49:49.011Z,11.62
2018-04-06T11:52:16.577Z,11.66
2018-04-06T11:54:44.134Z,11.56
2018-04-06T11:57:11.612Z,11.79
2018-04-06T11:59:39.075Z,12.03
2018-04-06T12:02:06.542Z,11.94
2018-04-06T12:04:34.010Z,11.84
2018-04-06T12:07:01.485Z,12.07
2018-04-06T12:09:29.017Z,11.88
2018-04-06T12:11:56.477Z,11.73
2018-04-06T12:14:23.997Z,11.71
2018-04-06T12:16:51.556Z,12.10
2018-04-06T12:19:19.041Z,12.42
2018-04-06T12:21:46.522Z,12.29
2018-04-06T12:24:13.984Z,12.35
2018-04-06T12:26:41.488Z,12.36
2018-04-06T12:29:08.968Z,12.23
2018-04-06T12:31:36.425Z,12.06
2018-04-06T12:34:03.877Z,12.27
2018-04-06T12:36:31.399Z,12.58
2018-04-06T12:38:58.850Z,12.63
2018-04-06T12:41:26.313Z,12.65
2018-04-06T12:43:53.873Z,12.79
2018-04-06T12:46:21.318Z,12.71
2018-04-06T12:48:48.805Z,12.64
2018-04-06T12:51:16.277Z,12.44
2018-04-06T12:53:43.730Z,12.47
2018-04-06T12:56:11.312Z,12.46
2018-04-06T12:58:38.790Z,12.47
2018-04-06T13:01:06.269Z,12.58
2018-04-06T13:03:33.743Z,12.70
2018-04-06T13:06:01.298Z,12.92
2018-04-06T13:08:28.802Z,13.16
2018-04-06T13:10:56.280Z,12.92
2018-04-06T13:13:23.772Z,12.79
2018-04-06T13:15:51.323Z,12.75
2018-04-06T13:18:18.799Z,12.76
2018-04-06T13:20:46.262Z,12.92
2018-04-06T13:23:13.723Z,13.10
2018-04-06T13:25:41.305Z,13.16
2018-04-06T13:28:08.819Z,13.04
2018-04-06T13:30:36.389Z,12.97
2018-04-06T13:33:03.928Z,12.90
2018-04-06T13:35:31.421Z,13.08
2018-04-06T13:37:58.991Z,13.22
2018-04-06T13:40:26.512Z,12.99
2018-04-06T13:42:54.003Z,12.76
2018-04-06T13:45:21.467Z,12.66
2018-04-06T13:47:48.945Z,12.60
2018-04-06T13:50:16.427Z,12.66
2018-04-06T13:52:43.877Z,12.81
2018-04-06T13:55:11.343Z,12.93
2018-04-06T13:57:38.830Z,13.04
2018-04-06T14:00:06.498Z,13.08
2018-04-06T14:02:34.029Z,12.98
2018-04-06T14:05:01.595Z,12.95
2018-04-06T14:07:29.103Z,12.99
2018-04-06T14:09:56.613Z,12.93
2018-04-06T14:12:24.070Z,12.74
2018-04-06T14:14:51.576Z,12.84
2018-04-06T14:17:19.135Z,12.99
2018-04-06T14:19:46.598Z,13.14
2018-04-06T14:22:14.087Z,13.00
2018-04-06T14:24:41.614Z,13.13
2018-04-06T14:27:09.098Z,13.13
2018-04-06T14:29:36.578Z,13.00
2018-04-06T14:32:04.054Z,12.92
2018-04-06T14:34:31.508Z,12.86
2018-04-06T14:36:58.972Z,12.71
2018-04-06T14:39:26.475Z,12.72
2018-04-06T14:41:53.994Z,12.87
2018-04-06T14:44:21.584Z,13.18
2018-04-06T14:46:49.061Z,13.39
2018-04-06T14:49:16.590Z,13.55
2018-04-06T14:51:44.067Z,13.60
2018-04-06T14:54:11.538Z,13.49
2018-04-06T14:56:39.046Z,13.34
2018-04-06T14:59:06.561Z,13.17
2018-04-06T15:01:34.008Z,13.06
2018-04-06T15:04:01.478Z,13.21
2018-04-06T15:06:28.950Z,13.36
2018-04-06T15:08:56.402Z,13.51
2018-04-06T15:11:23.902Z,13.47
2018-04-06T15:13:51.427Z,13.50
2018-04-06T15:16:18.875Z,13.30
2018-04-06T15:18:46.338Z,13.23
2018-04-06T15:21:13.819Z,13.22
2018-04-06T15:23:41.286Z,13.25
2018-04-06T15:26:08.742Z,13.31
2018-04-06T15:28:36.207Z,13.36
2018-04-06T15:31:03.801Z,13.38
2018-04-06T15:33:31.288Z,13.33
2018-04-06T15:35:58.802Z,13.24
2018-04-06T15:38:26.262Z,13.08
2018-04-06T15:40:53.767Z,13.17
2018-04-06T15:43:22.140Z,13.25
2018-04-06T15:45:49.750Z,13.27
2018-04-06T15:48:17.218Z,13.11
2018-04-06T15:50:44.674Z,13.87
2018-04-06T15:53:12.303Z,15.92
2018-04-06T15:55:39.837Z,17.35
2018-04-06T15:58:07.288Z,18.95
2018-04-06T16:00:34.867Z,19.63
2018-04-06T16:03:02.292Z,19.72
2018-04-06T16:05:29.787Z,20.22
2018-04-06T16:07:57.250Z,20.11
2018-04-06T16:10:24.709Z,19.82
2018-04-06T16:12:52.213Z,19.73
2018-04-06T16:15:19.706Z,19.32
2018-04-06T16:17:47.180Z,18.40
2018-04-06T16:20:14.660Z,18.23
2018-04-06T16:22:42.165Z,17.84
2018-04-06T16:25:09.626Z,16.29
2018-04-06T16:27:37.141Z,16.03
2018-04-06T16:30:04.669Z,16.77
2018-04-06T16:32:32.126Z,17.34
2018-04-06T16:34:59.606Z,17.74
2018-04-06T16:37:27.059Z,17.55
2018-04-06T16:39:54.534Z,17.12
2018-04-06T16:42:22.010Z,16.59
2018-04-06T16:44:49.499Z,16.49
2018-04-06T16:47:16.976Z,16.48
2018-04-06T16:49:44.518Z,16.32
2018-04-06T16:52:11.999Z,15.55
2018-04-06T16:54:39.457Z,14.63
2018-04-06T16:57:06.983Z,13.77
2018-04-06T16:59:34.434Z,12.99
2018-04-06T17:02:01.893Z,12.63
2018-04-06T17:04:29.394Z,12.53
2018-04-06T17:06:56.845Z,12.42
2018-04-06T17:09:24.311Z,12.36
2018-04-06T17:11:51.794Z,12.32
2018-04-06T17:14:19.267Z,12.22
2018-04-06T17:16:46.731Z,12.10
2018-04-06T17:19:14.251Z,12.05
2018-04-06T17:21:41.700Z,11.99
2018-04-06T17:24:09.227Z,11.96
2018-04-06T17:26:36.720Z,11.88
2018-04-06T17:29:04.194Z,11.83
2018-04-06T17:31:31.654Z,11.78
2018-04-06T17:33:59.139Z,11.71
2018-04-06T17:36:26.648Z,11.63
2018-04-06T17:38:54.209Z,11.57
2018-04-06T17:41:21.674Z,11.53
2018-04-06T17:43:49.144Z,11.49
2018-04-06T17:46:16.635Z,11.43
2018-04-06T17:48:44.094Z,11.35
2018-04-06T17:51:11.698Z,11.34
2018-04-06T17:53:39.170Z,11.29
2018-04-06T17:56:06.648Z,11.20
2018-04-06T17:58:34.122Z,11.14
2018-04-06T18:01:01.592Z,11.13
2018-04-06T18:03:29.090Z,11.12
2018-04-06T18:05:56.707Z,11.06
2018-04-06T18:08:24.159Z,11.00
2018-04-06T18:10:51.619Z,11.02
2018-04-06T18:13:19.221Z,11.02
2018-04-06T18:15:46.675Z,10.93
2018-04-06T18:18:14.130Z,10.92
2018-04-06T18:20:41.617Z,10.92
2018-04-06T18:23:09.069Z,10.86
2018-04-06T18:25:36.613Z,10.84
2018-04-06T18:28:04.081Z,10.80
2018-04-06T18:30:31.541Z,10.75
2018-04-06T18:32:59.042Z,10.76
2018-04-06T18:35:26.505Z,10.68
2018-04-06T18:37:53.960Z,10.66
2018-04-06T18:40:21.451Z,10.61
2018-04-06T18:42:48.949Z,10.58
2018-04-06T18:45:16.398Z,10.57
2018-04-06T18:47:43.894Z,10.54
2018-04-06T18:50:11.446Z,10.50
2018-04-06T18:52:38.975Z,10.52
2018-04-06T18:55:06.474Z,10.45
2018-04-06T18:57:33.962Z,10.48
2018-04-06T19:00:01.435Z,10.42
2018-04-06T19:02:28.983Z,10.35
2018-04-06T19:04:56.452Z,10.30
2018-04-06T19:07:23.951Z,10.27
2018-04-06T19:09:51.662Z,10.23
2018-04-06T19:12:19.123Z,10.19
2018-04-06T19:14:46.639Z,10.14
2018-04-06T19:17:14.130Z,10.07
2018-04-06T19:19:41.606Z,10.01
2018-04-06T19:22:09.107Z,9.97
2018-04-06T19:24:36.574Z,9.93
2018-04-06T19:27:04.046Z,9.87
2018-04-06T19:29:31.529Z,9.79
2018-04-06T19:31:58.982Z,9.72
2018-04-06T19:34:26.475Z,9.66
2018-04-06T19:36:54.049Z,9.60
2018-04-06T19:39:21.506Z,9.55
2018-04-06T19:41:49.004Z,9.48
2018-04-06T19:44:16.465Z,9.49
2018-04-06T19:46:43.930Z,9.42
2018-04-06T19:49:11.402Z,9.35
2018-04-06T19:51:38.851Z,9.30
2018-04-06T19:54:06.398Z,9.27
2018-04-06T19:56:33.895Z,9.23
2018-04-06T19:59:01.356Z,9.19
2018-04-06T20:01:28.914Z,9.12
2018-04-06T20:03:56.492Z,9.04
2018-04-06T20:06:23.959Z,8.98
2018-04-06T20:08:51.427Z,8.90
2018-04-06T20:11:18.900Z,8.83
2018-04-06T20:13:46.425Z,8.79
2018-04-06T20:16:14.064Z,8.75
2018-04-06T20:18:41.784Z,8.69
2018-04-06T20:21:09.421Z,8.63
2018-04-06T20:23:37.083Z,8.55
2018-04-06T20:26:04.550Z,8.50
2018-04-06T20:28:32.050Z,8.46
2018-04-06T20:31:00.067Z,8.39
2018-04-06T20:33:27.605Z,8.33
2018-04-06T20:35:55.089Z,8.30
2018-04-06T20:38:22.550Z,8.24
2018-04-06T20:40:50.411Z,8.20
2018-04-06T20:43:17.899Z,8.14
2018-04-06T20:45:45.375Z,8.11
2018-04-06T20:48:12.840Z,8.10
2018-04-06T20:50:40.338Z,8.09
2018-04-06T20:53:07.795Z,8.06
2018-04-06T20:55:35.506Z,8.06
2018-04-06T20:58:02.998Z,8.07
2018-04-06T21:00:30.450Z,8.09
2018-04-06T21:02:57.947Z,8.07
2018-04-06T21:05:25.403Z,8.07
2018-04-06T21:07:52.854Z,8.16
2018-04-06T21:10:20.374Z,8.15
2018-04-06T21:12:47.837Z,8.14
2018-04-06T21:15:15.326Z,8.10
2018-04-06T21:17:42.786Z,8.05
2018-04-06T21:20:10.254Z,8.05
2018-04-06T21:22:37.755Z,7.99
2018-04-06T21:25:05.230Z,7.93
2018-04-06T21:27:32.786Z,7.89
2018-04-06T21:30:01.116Z,7.86
2018-04-06T21:32:28.582Z,7.84
2018-04-06T21:34:56.078Z,7.76
2018-04-06T21:37:23.630Z,7.67
2018-04-06T21:39:51.137Z,7.70
2018-04-06T21:42:18.603Z,7.63
2018-04-06T21:44:46.156Z,7.55
2018-04-06T21:47:13.626Z,7.52
2018-04-06T21:49:41.082Z,7.52
2018-04-06T21:52:08.560Z,7.55
2018-04-06T21:54:36.138Z,7.51
2018-04-06T21:57:03.648Z,7.43
2018-04-06T21:59:31.139Z,7.41
2018-04-06T22:01:58.598Z,7.36
2018-04-06T22:04:26.079Z,7.31
2018-04-06T22:06:53.682Z,7.28
2018-04-06T22:09:21.150Z,7.21
2018-04-06T22:11:48.687Z,7.15
2018-04-06T22:14:16.223Z,7.10
2018-04-06T22:16:43.693Z,7.08
2018-04-06T22:19:11.135Z,7.06
2018-04-06T22:21:38.682Z,7.01
2018-04-06T22:24:06.142Z,6.98
2018-04-06T22:26:33.623Z,7.01
2018-04-06T22:29:01.110Z,7.00
2018-04-06T22:31:28.657Z,6.97
2018-04-06T22:33:56.132Z,6.91
2018-04-06T22:36:23.618Z,6.86
2018-04-06T22:38:51.103Z,6.80
2018-04-06T22:41:18.556Z,6.75
2018-04-06T22:43:46.079Z,6.69
2018-04-06T22:46:13.655Z,6.64
2018-04-06T22:48:41.117Z,6.62
2018-04-06T22:51:08.619Z,6.59
2018-04-06T22:53:36.084Z,6.55
2018-04-06T22:56:03.544Z,6.51
2018-04-06T22:58:31.042Z,6.48
2018-04-06T23:00:58.506Z,6.46
2018-04-06T23:03:25.973Z,6.45
2018-04-06T23:05:53.458Z,6.44
2018-04-06T23:08:20.975Z,6.46
2018-04-06T23:10:48.434Z,6.46
2018-04-06T23:13:15.914Z,6.45
2018-04-06T23:15:43.377Z,6.44
2018-04-06T23:18:10.853Z,6.42
2018-04-06T23:20:38.318Z,6.39
2018-04-06T23:23:05.904Z,6.36
2018-04-06T23:25:33.401Z,6.34
2018-04-06T23:28:00.862Z,6.32
2018-04-06T23:30:28.324Z,6.31
2018-04-06T23:32:55.857Z,6.30
2018-04-06T23:35:23.416Z,6.28
2018-04-06T23:37:50.863Z,6.28
2018-04-06T23:40:18.354Z,6.27
2018-04-06T23:42:46.134Z,6.24
2018-04-06T23:45:13.598Z,6.23
2018-04-06T23:47:41.087Z,6.23
2018-04-06T23:50:08.546Z,6.19
2018-04-06T23:52:36.014Z,6.18
2018-04-06T23:55:03.483Z,6.13
2018-04-06T23:57:30.946Z,6.12
2018-04-06T23:59:58.505Z,6.14
